Time;durP1;ratioP1;P1;durP2;ratioP2;P2;SDS_P1;SDS_P2;PMS_P1;PMS_P2;Temp;Humidity;BMP_temperature;BMP_pressure;BME280_temperature;BME280_humidity;BME280_pressure;Samples;Min_cycle;Max_cycle;Signal;HPM_P1;HPM_P2
2022/08/15 00:01:40;;;;;;;11.68;9.68;;;20.70;99.90;;;;;;5033721;28;20199;-69
2022/08/15 00:04:08;;;;;;;12.00;10.20;;;20.80;99.90;;;;;;5033264;28;20206;-69
2022/08/15 00:06:39;;;;;;;11.73;10.52;;;20.60;99.90;;;;;;5031919;28;20199;-68
2022/08/15 00:09:10;;;;;;;11.02;9.82;;;20.30;99.90;;;;;;5033623;28;20204;-68
2022/08/15 00:11:41;;;;;;;13.00;9.98;;;19.90;99.90;;;;;;5014222;28;20204;-68
2022/08/15 00:14:10;;;;;;;12.15;10.30;;;19.60;99.90;;;;;;5027985;28;20211;-68
2022/08/15 00:16:41;;;;;;;14.70;10.52;;;19.70;99.90;;;;;;5033330;28;20192;-68
2022/08/15 00:19:12;;;;;;;12.15;10.85;;;19.90;99.90;;;;;;5033764;28;20254;-68
2022/08/15 00:21:41;;;;;;;12.75;10.50;;;20.00;99.90;;;;;;5028086;28;20196;-68
2022/08/15 00:24:08;;;;;;;11.05;9.85;;;20.30;99.90;;;;;;5033557;28;20650;-68
2022/08/15 00:26:35;;;;;;;11.50;10.25;;;20.50;99.90;;;;;;5033740;28;20657;-68
2022/08/15 00:29:04;;;;;;;13.32;10.07;;;20.30;99.90;;;;;;5033313;28;20206;-68
2022/08/15 00:31:32;;;;;;;13.30;10.15;;;19.70;99.90;;;;;;5032884;28;20199;-68
2022/08/15 00:34:00;;;;;;;13.63;10.00;;;19.70;99.90;;;;;;5033068;28;20597;-68
2022/08/15 00:36:27;;;;;;;11.02;9.50;;;20.00;99.90;;;;;;5014599;28;20236;-69
2022/08/15 00:38:53;;;;;;;12.98;10.45;;;20.20;99.90;;;;;;5024002;28;20203;-68
2022/08/15 00:44:11;;;;;;;10.70;9.60;;;20.30;99.90;;;;;;5033000;28;20314;-68
2022/08/15 00:46:40;;;;;;;12.40;10.13;;;20.10;99.90;;;;;;5032597;28;20549;-68
2022/08/15 00:49:07;;;;;;;15.35;10.20;;;19.70;99.90;;;;;;5032513;28;20200;-67
2022/08/15 00:51:37;;;;;;;11.60;10.40;;;19.80;99.90;;;;;;5032926;28;20211;-67
2022/08/15 00:54:08;;;;;;;11.63;10.43;;;19.90;99.90;;;;;;5031265;28;20650;-67
2022/08/15 00:56:39;;;;;;;11.80;10.55;;;19.80;99.90;;;;;;5033179;28;20227;-67
2022/08/15 00:59:09;;;;;;;14.13;10.07;;;19.20;99.90;;;;;;5033141;28;20217;-67
2022/08/15 01:01:38;;;;;;;14.02;10.75;;;19.20;99.90;;;;;;5031486;28;20216;-67
2022/08/15 01:04:08;;;;;;;12.90;11.18;;;19.40;99.90;;;;;;5032987;28;20234;-68
2022/08/15 01:06:37;;;;;;;12.60;10.00;;;19.60;99.90;;;;;;5025384;28;20203;-67
2022/08/15 01:09:06;;;;;;;12.93;10.32;;;19.70;99.90;;;;;;5026427;28;20234;-67
2022/08/15 01:11:37;;;;;;;11.85;10.05;;;19.90;99.90;;;;;;5032434;28;20215;-67
2022/08/15 01:14:06;;;;;;;13.50;10.80;;;20.00;99.90;;;;;;5033277;28;20566;-67
2022/08/15 01:16:38;;;;;;;14.45;11.18;;;19.60;99.90;;;;;;5032764;28;20243;-67
2022/08/15 01:19:10;;;;;;;13.23;10.90;;;19.40;99.90;;;;;;5032635;28;20231;-67
2022/08/15 01:21:41;;;;;;;14.20;10.85;;;19.30;99.90;;;;;;5030169;28;20199;-67
2022/08/15 01:24:15;;;;;;;16.60;11.75;;;19.50;99.90;;;;;;5032702;28;20208;-67
2022/08/15 01:26:44;;;;;;;16.20;11.32;;;19.60;99.90;;;;;;5032622;28;20207;-67
2022/08/15 01:29:13;;;;;;;15.43;10.48;;;19.80;99.90;;;;;;5032498;28;20208;-67
2022/08/15 01:31:40;;;;;;;15.25;10.75;;;19.60;99.90;;;;;;5032398;28;20199;-67
2022/08/15 01:34:07;;;;;;;14.57;10.88;;;19.70;99.90;;;;;;5032434;28;20207;-67
2022/08/15 01:36:34;;;;;;;12.30;10.27;;;19.30;99.90;;;;;;5029783;28;20215;-67
2022/08/15 01:39:09;;;;;;;12.48;9.93;;;19.40;99.90;;;;;;5032593;28;20203;-67
2022/08/15 01:41:41;;;;;;;15.85;11.43;;;19.60;99.90;;;;;;5018240;28;20211;-67
2022/08/15 01:44:21;;;;;;;13.55;10.70;;;19.70;99.90;;;;;;5026495;28;20199;-67
2022/08/15 01:46:54;;;;;;;16.45;11.10;;;19.70;99.90;;;;;;5036655;28;20218;-67
2022/08/15 01:49:27;;;;;;;14.55;11.18;;;19.90;99.90;;;;;;5036360;28;20199;-67
2022/08/15 01:51:58;;;;;;;15.15;10.48;;;19.90;99.90;;;;;;5036479;28;20199;-67
2022/08/15 01:54:30;;;;;;;14.25;10.82;;;20.00;99.90;;;;;;5036595;28;20203;-67
2022/08/15 01:56:57;;;;;;;13.90;10.73;;;20.10;99.90;;;;;;5035917;28;20226;-67
2022/08/15 01:59:27;;;;;;;14.18;11.55;;;20.10;99.90;;;;;;5036102;28;20210;-68
2022/08/15 02:01:57;;;;;;;12.80;10.45;;;20.10;99.90;;;;;;5035621;28;20246;-67
2022/08/15 02:04:28;;;;;;;12.35;10.40;;;20.00;99.90;;;;;;5021750;28;20208;-67
2022/08/15 02:06:55;;;;;;;14.45;10.60;;;20.00;99.90;;;;;;5036086;28;20646;-67
2022/08/15 02:09:23;;;;;;;15.70;11.07;;;20.10;99.90;;;;;;5036287;28;20203;-67
2022/08/15 02:11:51;;;;;;;12.73;11.02;;;19.60;99.90;;;;;;5035548;28;20211;-67
2022/08/15 02:14:20;;;;;;;13.85;11.30;;;19.40;99.90;;;;;;5036405;28;20207;-67
2022/08/15 02:16:49;;;;;;;11.85;10.23;;;19.40;99.90;;;;;;5036158;28;20224;-67
2022/08/15 02:19:17;;;;;;;13.40;11.88;;;19.20;99.90;;;;;;5035157;28;20203;-67
2022/08/15 02:21:46;;;;;;;15.20;12.32;;;19.20;99.90;;;;;;5029466;28;20567;-67
2022/08/15 02:24:17;;;;;;;16.77;11.48;;;19.30;99.90;;;;;;5035725;28;20199;-67
2022/08/15 02:26:44;;;;;;;13.55;11.35;;;19.60;99.90;;;;;;5035758;28;20713;-67
2022/08/15 02:29:11;;;;;;;16.48;12.32;;;19.70;99.90;;;;;;5035625;28;20200;-67
2022/08/15 02:31:39;;;;;;;13.65;11.40;;;19.80;99.90;;;;;;5026962;28;20196;-67
2022/08/15 02:34:08;;;;;;;14.70;11.82;;;19.70;99.90;;;;;;5035704;28;20207;-67
2022/08/15 02:36:36;;;;;;;12.35;11.05;;;19.50;99.90;;;;;;5035842;28;20215;-67
2022/08/15 02:39:08;;;;;;;13.98;11.80;;;19.60;99.90;;;;;;5035409;28;20245;-67
2022/08/15 02:41:37;;;;;;;15.60;11.88;;;19.80;99.90;;;;;;5035391;28;20204;-67
2022/08/15 02:44:05;;;;;;;13.60;10.68;;;19.80;99.90;;;;;;5026826;28;20216;-67
2022/08/15 02:46:32;;;;;;;12.75;11.02;;;19.90;99.90;;;;;;5035620;28;20211;-67
2022/08/15 02:49:02;;;;;;;11.73;10.43;;;20.00;99.90;;;;;;5034715;28;20210;-67
2022/08/15 02:51:31;;;;;;;12.55;10.38;;;20.00;99.90;;;;;;5035015;28;20206;-67
2022/08/15 02:53:58;;;;;;;12.10;10.80;;;19.80;99.90;;;;;;5027840;28;20206;-67
2022/08/15 02:56:27;;;;;;;13.07;11.15;;;19.90;99.90;;;;;;5035236;28;20223;-67
2022/08/15 02:58:55;;;;;;;14.52;11.27;;;19.80;99.90;;;;;;5034855;28;20202;-67
2022/08/15 03:01:23;;;;;;;13.52;10.80;;;19.80;99.90;;;;;;5035069;28;20208;-67
2022/08/15 03:03:53;;;;;;;12.88;11.38;;;19.80;99.90;;;;;;5034421;28;20210;-67
2022/08/15 03:06:24;;;;;;;14.02;11.20;;;19.60;99.90;;;;;;5015736;28;20204;-67
2022/08/15 03:08:53;;;;;;;17.70;10.75;;;19.70;99.90;;;;;;5015564;28;20296;-67
2022/08/15 03:11:21;;;;;;;12.23;10.57;;;19.80;99.90;;;;;;5015320;28;20200;-67
2022/08/15 03:13:48;;;;;;;11.80;10.45;;;19.80;99.90;;;;;;5021632;28;20254;-67
2022/08/15 03:16:16;;;;;;;14.90;11.05;;;19.90;99.90;;;;;;5035246;28;20230;-67
2022/08/15 03:18:43;;;;;;;12.95;11.32;;;19.80;99.90;;;;;;5034638;28;20287;-67
2022/08/15 03:21:13;;;;;;;13.52;11.40;;;19.80;99.90;;;;;;5023181;28;20208;-67
2022/08/15 03:23:48;;;;;;;14.93;10.93;;;19.60;99.90;;;;;;5015390;28;20300;-67
2022/08/15 03:26:18;;;;;;;14.13;11.57;;;19.60;99.90;;;;;;5013747;28;20204;-68
2022/08/15 03:28:45;;;;;;;12.00;10.50;;;19.70;99.90;;;;;;5015082;28;20211;-67
2022/08/15 03:31:14;;;;;;;15.10;11.18;;;19.70;99.90;;;;;;5014790;28;20211;-67
2022/08/15 03:33:44;;;;;;;13.85;11.73;;;19.80;99.90;;;;;;5014997;28;20208;-67
2022/08/15 03:36:12;;;;;;;13.90;11.75;;;19.80;99.90;;;;;;5025062;28;20266;-67
2022/08/15 03:38:39;;;;;;;12.80;10.85;;;19.90;99.90;;;;;;5034685;28;20263;-67
2022/08/15 03:41:08;;;;;;;12.85;10.88;;;20.00;99.90;;;;;;5034746;28;20571;-67
2022/08/15 03:43:38;;;;;;;14.45;10.88;;;19.90;99.90;;;;;;5034721;28;20712;-67
2022/08/15 03:46:08;;;;;;;12.40;10.90;;;19.90;99.90;;;;;;5034820;28;20727;-67
2022/08/15 03:48:38;;;;;;;14.52;11.13;;;19.60;99.90;;;;;;5034638;28;20207;-67
2022/08/15 03:51:07;;;;;;;16.20;11.65;;;19.70;99.90;;;;;;5032123;28;20204;-67
2022/08/15 03:53:37;;;;;;;15.10;12.45;;;19.90;99.90;;;;;;5016681;28;20216;-67
2022/08/15 03:56:06;;;;;;;13.80;11.75;;;19.90;99.90;;;;;;5014317;28;20231;-67
2022/08/15 03:58:34;;;;;;;19.95;12.07;;;19.60;99.90;;;;;;5014660;28;20205;-71
2022/08/15 04:01:03;;;;;;;14.02;11.80;;;19.50;99.90;;;;;;5014390;28;20216;-71
2022/08/15 04:03:31;;;;;;;16.02;12.25;;;19.80;99.90;;;;;;5014556;28;20207;-70
2022/08/15 04:06:00;;;;;;;27.38;13.20;;;19.80;99.90;;;;;;5014401;28;20223;-71
2022/08/15 04:08:30;;;;;;;14.60;11.98;;;19.80;99.90;;;;;;5013827;28;20223;-70
2022/08/15 04:10:58;;;;;;;14.10;11.90;;;19.90;99.90;;;;;;5014164;28;20295;-70
2022/08/15 04:13:26;;;;;;;14.15;11.75;;;19.80;99.90;;;;;;5014346;28;20211;-70
2022/08/15 04:15:54;;;;;;;16.73;11.52;;;19.80;99.90;;;;;;5014143;28;20609;-70
2022/08/15 04:18:24;;;;;;;15.05;12.60;;;19.80;99.90;;;;;;5014143;28;20204;-71
2022/08/15 04:20:51;;;;;;;14.45;11.68;;;19.90;99.90;;;;;;5013947;28;20208;-71
2022/08/15 04:23:18;;;;;;;16.55;11.73;;;19.90;99.90;;;;;;5013991;28;20677;-70
2022/08/15 04:25:45;;;;;;;14.35;11.48;;;19.90;99.90;;;;;;5014317;28;20204;-70
2022/08/15 04:28:15;;;;;;;15.82;11.48;;;20.10;99.90;;;;;;5013625;28;20204;-70
2022/08/15 04:30:45;;;;;;;13.88;11.20;;;20.20;99.90;;;;;;5013348;28;20216;-71
2022/08/15 04:33:15;;;;;;;14.63;11.60;;;20.10;99.90;;;;;;5013947;28;20200;-71
2022/08/15 04:35:46;;;;;;;15.85;11.68;;;19.90;99.90;;;;;;5013693;28;20208;-71
2022/08/15 04:38:13;;;;;;;18.42;11.32;;;19.90;99.90;;;;;;5013681;28;20218;-70
2022/08/15 04:40:40;;;;;;;16.08;11.45;;;19.90;99.90;;;;;;5013850;28;20640;-70
2022/08/15 04:43:07;;;;;;;17.42;11.52;;;19.90;99.90;;;;;;5013758;28;20211;-70
2022/08/15 04:45:35;;;;;;;20.33;11.70;;;19.80;99.90;;;;;;5013769;28;20215;-70
2022/08/15 04:48:03;;;;;;;17.42;11.48;;;19.80;99.90;;;;;;5013652;28;20204;-71
2022/08/15 04:50:30;;;;;;;21.65;11.65;;;19.90;99.90;;;;;;5013351;28;20659;-71
2022/08/15 04:53:00;;;;;;;21.00;11.73;;;20.00;99.90;;;;;;5013639;28;20244;-71
2022/08/15 04:55:28;;;;;;;14.27;11.20;;;20.00;99.90;;;;;;5013705;28;20216;-71
2022/08/15 04:57:58;;;;;;;15.10;11.15;;;20.20;99.90;;;;;;5013369;28;20235;-71
2022/08/15 05:00:27;;;;;;;13.35;10.70;;;20.20;99.90;;;;;;5029048;28;20215;-71
2022/08/15 05:03:00;;;;;;;16.02;11.25;;;20.20;99.90;;;;;;5033231;28;20203;-71
2022/08/15 05:05:27;;;;;;;16.85;11.20;;;20.30;99.90;;;;;;5031045;28;20199;-71
2022/08/15 05:07:54;;;;;;;15.27;11.60;;;20.40;99.90;;;;;;5020746;28;20670;-71
2022/08/15 05:10:22;;;;;;;16.08;10.95;;;20.40;99.90;;;;;;5012853;28;20210;-71
2022/08/15 05:12:49;;;;;;;12.73;10.60;;;20.40;99.90;;;;;;5013320;28;20204;-70
2022/08/15 05:15:18;;;;;;;14.07;10.98;;;20.40;99.90;;;;;;5013073;28;20211;-71
2022/08/15 05:17:46;;;;;;;13.07;11.20;;;20.50;99.90;;;;;;5013520;28;20224;-71
2022/08/15 05:20:13;;;;;;;13.00;10.93;;;20.40;99.90;;;;;;5012415;28;20212;-71
2022/08/15 05:22:56;;;;;;;14.73;11.25;;;20.30;99.90;;;;;;5012960;28;20208;-71
2022/08/15 05:25:24;;;;;;;16.10;11.60;;;20.50;99.90;;;;;;5013203;28;20207;-71
2022/08/15 05:27:54;;;;;;;14.65;11.02;;;20.30;99.90;;;;;;5012995;28;20204;-71
2022/08/15 05:30:22;;;;;;;13.65;10.65;;;20.40;99.90;;;;;;5013022;28;20673;-71
2022/08/15 05:33:00;;;;;;;14.10;10.55;;;20.40;99.90;;;;;;5013089;28;20208;-71
2022/08/15 05:35:26;;;;;;;14.02;10.88;;;20.40;99.90;;;;;;5013089;28;20243;-71
2022/08/15 05:37:53;;;;;;;15.95;11.50;;;20.30;99.90;;;;;;5012870;28;20228;-71
2022/08/15 05:40:20;;;;;;;15.88;10.95;;;20.30;99.90;;;;;;5012693;28;20215;-71
2022/08/15 05:42:55;;;;;;;17.58;11.07;;;20.40;99.90;;;;;;5013179;28;20211;-71
2022/08/15 05:45:32;;;;;;;15.38;11.57;;;20.50;99.90;;;;;;5013031;28;20572;-70
2022/08/15 05:48:09;;;;;;;21.60;11.57;;;20.50;99.90;;;;;;5011709;28;20200;-71
2022/08/15 05:50:48;;;;;;;32.28;12.40;;;20.50;99.90;;;;;;5020035;28;20219;-71
2022/08/15 05:53:27;;;;;;;30.08;12.52;;;20.50;99.90;;;;;;5032578;28;20262;-71
2022/08/15 05:56:00;;;;;;;23.73;11.48;;;20.80;99.90;;;;;;5032693;28;20210;-71
2022/08/15 05:58:41;;;;;;;27.80;11.70;;;20.90;99.90;;;;;;5032534;28;20646;-71
2022/08/15 06:01:15;;;;;;;30.33;12.75;;;21.00;99.90;;;;;;5032110;28;20215;-71
2022/08/15 06:03:46;;;;;;;26.30;11.65;;;21.00;99.90;;;;;;5032498;28;20204;-71
2022/08/15 06:06:18;;;;;;;20.70;11.55;;;20.80;99.90;;;;;;5032011;28;20207;-71
2022/08/15 06:08:51;;;;;;;21.75;11.57;;;20.80;99.90;;;;;;5032482;28;20635;-71
2022/08/15 06:11:26;;;;;;;22.05;11.55;;;20.80;99.90;;;;;;5032257;28;20635;-71
2022/08/15 06:13:59;;;;;;;28.10;11.55;;;20.90;99.90;;;;;;5032312;28;20214;-71
2022/08/15 06:16:32;;;;;;;33.28;12.90;;;20.90;99.90;;;;;;5032173;28;20220;-71
2022/08/15 06:19:03;;;;;;;39.28;12.88;;;20.90;99.90;;;;;;5032438;28;20564;-71
2022/08/15 06:21:40;;;;;;;29.50;12.63;;;21.00;99.90;;;;;;5031869;28;20216;-71
2022/08/15 06:24:13;;;;;;;18.52;11.05;;;21.10;99.90;;;;;;5030741;28;20203;-71
2022/08/15 06:26:50;;;;;;;18.65;12.57;;;21.10;99.90;;;;;;5032209;28;20207;-70
2022/08/15 06:29:34;;;;;;;18.65;11.98;;;21.10;99.90;;;;;;5032085;28;20212;-72
2022/08/15 06:32:07;;;;;;;19.13;11.68;;;21.10;99.90;;;;;;5034293;28;20199;-71
2022/08/15 06:34:41;;;;;;;20.17;12.50;;;21.20;99.90;;;;;;5035532;28;20195;-71
2022/08/15 06:37:19;;;;;;;17.80;10.98;;;21.20;99.90;;;;;;5035603;28;20731;-70
2022/08/15 06:39:58;;;;;;;18.05;11.18;;;21.30;99.90;;;;;;5035683;28;20626;-71
2022/08/15 06:42:34;;;;;;;16.17;11.98;;;21.30;99.90;;;;;;5034505;28;20203;-71
2022/08/15 06:45:08;;;;;;;16.35;11.13;;;21.40;99.90;;;;;;5035519;28;20298;-71
2022/08/15 06:47:36;;;;;;;17.90;10.88;;;21.50;99.90;;;;;;5034645;28;20207;-71
2022/08/15 06:50:10;;;;;;;15.63;10.45;;;21.50;99.90;;;;;;5032459;28;20212;-71
2022/08/15 06:52:37;;;;;;;14.70;11.07;;;21.60;99.90;;;;;;5015780;28;20207;-71
2022/08/15 06:55:05;;;;;;;19.13;10.98;;;21.60;99.90;;;;;;5015708;28;20647;-71
2022/08/15 06:57:41;;;;;;;16.25;10.95;;;21.70;99.90;;;;;;5015633;28;20220;-71
2022/08/15 07:00:15;;;;;;;14.95;11.52;;;21.80;99.90;;;;;;5014212;28;20658;-71
2022/08/15 07:02:53;;;;;;;13.52;10.65;;;21.80;99.90;;;;;;5015352;28;20208;-71
2022/08/15 07:05:26;;;;;;;12.90;10.82;;;21.80;99.90;;;;;;5015180;28;20663;-66
2022/08/15 07:08:00;;;;;;;14.23;10.88;;;21.90;99.90;;;;;;5015569;28;20209;-66
2022/08/15 07:10:31;;;;;;;20.08;12.02;;;21.90;99.90;;;;;;5015379;28;20212;-66
2022/08/15 07:13:04;;;;;;;14.63;11.35;;;21.90;99.90;;;;;;5015696;28;20703;-66
2022/08/15 07:15:41;;;;;;;22.35;11.98;;;22.10;99.90;;;;;;5015258;28;20212;-66
2022/08/15 07:18:11;;;;;;;16.45;11.07;;;22.10;99.90;;;;;;5013810;28;20590;-66
2022/08/15 07:20:38;;;;;;;17.30;10.73;;;22.10;99.90;;;;;;5015355;28;20211;-66
2022/08/15 07:23:16;;;;;;;17.17;12.35;;;22.20;99.90;;;;;;5015527;28;20207;-66
2022/08/15 07:25:47;;;;;;;18.52;11.18;;;22.20;99.90;;;;;;5015001;28;20219;-66
2022/08/15 07:28:18;;;;;;;16.48;12.10;;;22.40;99.90;;;;;;5015180;28;20643;-66
2022/08/15 07:30:50;;;;;;;13.73;10.88;;;22.40;99.90;;;;;;5014618;28;20647;-66
2022/08/15 07:33:34;;;;;;;16.83;11.25;;;22.60;99.90;;;;;;5015049;28;20219;-66
2022/08/15 07:36:05;;;;;;;17.90;11.00;;;22.80;99.90;;;;;;5014017;28;20204;-66
2022/08/15 07:38:33;;;;;;;18.80;11.88;;;22.90;99.90;;;;;;5014806;28;20230;-66
2022/08/15 07:41:16;;;;;;;16.90;11.55;;;23.00;99.90;;;;;;5014257;28;20212;-66
2022/08/15 07:43:43;;;;;;;18.33;10.38;;;23.10;99.90;;;;;;5014927;28;20659;-66
2022/08/15 07:46:14;;;;;;;14.90;10.90;;;23.10;99.90;;;;;;5014801;28;20204;-66
2022/08/15 07:48:42;;;;;;;12.45;10.40;;;23.10;99.90;;;;;;5014834;28;20659;-66
2022/08/15 07:51:23;;;;;;;14.23;10.43;;;23.10;99.90;;;;;;5030268;28;20219;-66
2022/08/15 07:53:53;;;;;;;16.45;11.10;;;23.20;99.90;;;;;;5014835;28;20266;-67
2022/08/15 07:56:20;;;;;;;15.05;10.25;;;23.30;99.90;;;;;;5014616;28;20617;-66
2022/08/15 07:58:52;;;;;;;13.43;9.82;;;23.50;99.90;;;;;;5014702;28;20713;-66
2022/08/15 08:01:24;;;;;;;13.48;10.02;;;23.60;99.90;;;;;;5029663;28;20250;-66
2022/08/15 08:03:58;;;;;;;14.10;10.40;;;23.70;99.90;;;;;;5014341;28;20255;-66
2022/08/15 08:06:32;;;;;;;12.27;10.18;;;23.70;99.90;;;;;;5014646;28;20227;-66
2022/08/15 08:09:09;;;;;;;14.68;10.07;;;23.80;99.90;;;;;;5014315;28;20212;-66
2022/08/15 08:11:48;;;;;;;13.85;10.02;;;23.90;99.90;;;;;;5014118;28;20230;-66
2022/08/15 08:14:35;;;;;;;16.35;9.98;;;24.00;99.90;;;;;;5014298;28;20204;-66
2022/08/15 08:17:12;;;;;;;24.02;10.43;;;24.00;96.20;;;;;;5014336;28;20239;-66
2022/08/15 08:19:52;;;;;;;11.77;9.57;;;24.20;97.10;;;;;;5012943;28;20214;-66
2022/08/15 08:22:26;;;;;;;23.40;10.77;;;24.30;96.40;;;;;;5014178;28;20212;-66
2022/08/15 08:25:01;;;;;;;25.80;11.57;;;24.40;92.00;;;;;;5012989;28;20208;-66
2022/08/15 08:27:40;;;;;;;15.65;9.75;;;24.50;95.50;;;;;;5013989;28;20203;-66
2022/08/15 08:30:10;;;;;;;11.02;9.02;;;24.70;94.00;;;;;;5013681;28;20204;-66
2022/08/15 08:32:45;;;;;;;12.15;9.68;;;25.00;91.80;;;;;;5013808;28;20212;-66
2022/08/15 08:35:22;;;;;;;16.52;9.85;;;25.30;86.10;;;;;;5014133;28;20203;-67
2022/08/15 08:37:54;;;;;;;13.88;9.90;;;25.50;83.80;;;;;;5012458;28;20219;-66
2022/08/15 08:43:27;;;;;;;13.38;9.63;;;25.70;70.60;;;;;;5013895;28;20255;-66
2022/08/15 08:46:03;;;;;;;14.50;9.75;;;25.90;74.40;;;;;;5012354;28;20220;-66
2022/08/15 08:48:46;;;;;;;14.40;9.60;;;25.90;68.20;;;;;;5012271;28;20203;-67
2022/08/15 08:51:23;;;;;;;17.67;10.57;;;26.20;67.30;;;;;;5013636;28;20208;-67
2022/08/15 08:53:59;;;;;;;19.48;10.48;;;26.00;67.10;;;;;;5012085;28;20215;-66
2022/08/15 08:56:30;;;;;;;15.32;10.25;;;25.90;67.50;;;;;;5013546;28;20208;-66
2022/08/15 08:59:07;;;;;;;14.82;9.52;;;25.90;69.90;;;;;;5012326;28;20259;-66
2022/08/15 09:01:35;;;;;;;14.90;9.70;;;26.00;69.10;;;;;;5013178;28;20211;-66
2022/08/15 09:04:06;;;;;;;12.80;9.02;;;26.20;68.20;;;;;;5013463;28;20603;-67
2022/08/15 09:06:40;;;;;;;13.05;10.10;;;26.30;58.30;;;;;;5013735;28;20643;-67
2022/08/15 09:09:11;;;;;;;12.18;9.48;;;26.40;56.90;;;;;;5013249;28;20196;-67
2022/08/15 09:11:43;;;;;;;10.95;9.23;;;26.50;59.80;;;;;;5013310;28;20279;-67
2022/08/15 09:14:20;;;;;;;12.77;9.70;;;26.60;61.40;;;;;;5013334;28;20206;-67
2022/08/15 09:16:51;;;;;;;16.77;9.70;;;26.70;60.70;;;;;;5013635;28;20204;-67
2022/08/15 09:19:25;;;;;;;15.18;9.70;;;27.20;53.90;;;;;;5013084;28;20224;-67
2022/08/15 09:21:53;;;;;;;12.55;9.30;;;27.80;48.00;;;;;;5013351;28;20204;-67
2022/08/15 09:24:22;;;;;;;13.10;9.10;;;28.70;45.90;;;;;;5013288;28;20218;-67
2022/08/15 09:26:54;;;;;;;12.73;8.95;;;29.10;42.80;;;;;;5013259;28;20211;-67
2022/08/15 09:29:25;;;;;;;12.60;9.50;;;29.50;38.10;;;;;;5013118;28;20204;-67
2022/08/15 09:32:09;;;;;;;9.75;8.75;;;29.80;36.10;;;;;;5013094;28;20643;-67
2022/08/15 09:34:59;;;;;;;12.32;9.40;;;29.60;35.00;;;;;;5013332;28;20204;-67
2022/08/15 09:37:59;;;;;;;11.05;9.25;;;29.60;35.60;;;;;;5011907;28;20212;-67
2022/08/15 09:40:57;;;;;;;9.90;8.90;;;29.70;34.90;;;;;;5011084;28;20207;-67
2022/08/15 09:43:55;;;;;;;11.48;8.43;;;29.80;33.20;;;;;;5012476;28;20215;-67
2022/08/15 09:46:49;;;;;;;10.93;8.80;;;30.20;32.20;;;;;;5009094;28;20239;-67
2022/08/15 09:49:30;;;;;;;12.80;8.80;;;30.00;30.80;;;;;;5013879;28;20282;-67
2022/08/15 09:52:12;;;;;;;9.98;8.98;;;30.10;31.40;;;;;;5024303;28;20199;-67
2022/08/15 09:54:46;;;;;;;11.90;8.32;;;30.40;30.70;;;;;;5011605;28;20215;-67
2022/08/15 09:57:23;;;;;;;12.20;8.70;;;30.20;28.30;;;;;;5011286;28;20210;-67
2022/08/15 09:59:53;;;;;;;8.95;7.75;;;30.10;29.70;;;;;;5012660;28;20432;-67
2022/08/15 10:02:24;;;;;;;12.43;8.40;;;29.90;28.80;;;;;;5012883;28;20279;-67
2022/08/15 10:05:24;;;;;;;9.98;8.27;;;30.80;29.00;;;;;;5013524;28;20216;-67
2022/08/15 10:07:55;;;;;;;14.27;8.43;;;31.00;26.00;;;;;;4974963;28;20562;-67
2022/08/15 10:10:25;;;;;;;10.35;8.95;;;31.60;23.40;;;;;;5008119;28;20215;-67
2022/08/15 10:13:28;;;;;;;9.20;8.30;;;31.10;23.50;;;;;;5015972;28;20207;-71
2022/08/15 10:15:56;;;;;;;10.23;8.20;;;30.70;23.10;;;;;;4994913;28;20239;-71
2022/08/15 10:19:09;;;;;;;9.77;8.25;;;30.90;25.30;;;;;;5015742;28;20240;-72
2022/08/15 10:21:39;;;;;;;9.30;7.95;;;31.50;23.30;;;;;;4996714;28;20211;-68
2022/08/15 10:24:23;;;;;;;14.25;8.65;;;31.10;20.80;;;;;;5016238;28;20219;-72
2022/08/15 10:27:12;;;;;;;10.45;9.20;;;31.30;22.10;;;;;;5015668;28;20211;-72
2022/08/15 10:29:43;;;;;;;10.82;9.10;;;31.60;22.50;;;;;;5016053;28;20639;-67
2022/08/15 10:32:35;;;;;;;10.27;8.50;;;31.90;22.80;;;;;;5015530;28;20231;-67
2022/08/15 10:35:06;;;;;;;9.32;8.20;;;31.70;22.30;;;;;;5015549;28;20303;-67
2022/08/15 10:37:45;;;;;;;11.43;8.93;;;32.30;22.80;;;;;;5014863;28;20618;-67
2022/08/15 10:40:36;;;;;;;13.13;8.38;;;32.20;18.70;;;;;;5014998;28;20303;-67
2022/08/15 10:43:15;;;;;;;9.40;8.40;;;32.10;16.80;;;;;;5015470;28;20212;-67
2022/08/15 10:45:48;;;;;;;10.13;7.60;;;32.70;17.20;;;;;;5016206;28;20200;-68
2022/08/15 10:48:28;;;;;;;9.57;8.32;;;33.00;16.50;;;;;;5014748;28;20200;-68
2022/08/15 10:51:02;;;;;;;12.43;8.63;;;32.60;16.10;;;;;;5015578;28;20195;-68
2022/08/15 10:53:47;;;;;;;9.48;8.52;;;33.00;15.90;;;;;;5014511;28;20296;-68
2022/08/15 10:56:19;;;;;;;8.50;7.55;;;32.30;17.00;;;;;;5017302;28;20237;-68
2022/08/15 10:58:47;;;;;;;10.50;8.32;;;32.30;17.40;;;;;;5032665;28;20215;-68
2022/08/15 11:01:20;;;;;;;8.57;7.72;;;32.00;16.90;;;;;;5030331;28;20211;-68
2022/08/15 11:03:53;;;;;;;8.50;7.25;;;32.30;16.90;;;;;;5015874;28;20200;-68
2022/08/15 11:06:21;;;;;;;12.30;8.25;;;32.50;16.00;;;;;;5015910;28;20208;-68
2022/08/15 11:08:50;;;;;;;10.43;8.20;;;32.40;16.10;;;;;;5015731;28;20204;-68
2022/08/15 11:11:22;;;;;;;12.85;7.90;;;32.60;16.30;;;;;;5015435;28;20701;-68
2022/08/15 11:13:56;;;;;;;10.38;8.40;;;33.30;15.10;;;;;;5015515;28;20215;-68
2022/08/15 11:16:35;;;;;;;14.27;8.77;;;32.40;14.60;;;;;;5026721;28;20195;-68
2022/08/15 11:19:14;;;;;;;10.43;7.75;;;32.50;15.00;;;;;;5054844;28;20218;-68
2022/08/15 11:21:43;;;;;;;10.18;7.97;;;32.40;16.40;;;;;;5016557;28;20198;-68
2022/08/15 11:24:12;;;;;;;9.05;8.15;;;32.30;15.50;;;;;;5041996;28;20246;-68
2022/08/15 11:26:43;;;;;;;9.27;8.32;;;31.90;15.30;;;;;;5044109;28;20744;-68
2022/08/15 11:29:15;;;;;;;11.20;8.77;;;31.70;17.00;;;;;;5041648;28;20195;-68
2022/08/15 11:31:51;;;;;;;10.25;8.60;;;31.50;18.40;;;;;;5051190;28;20199;-68
2022/08/15 11:34:28;;;;;;;9.52;8.40;;;31.10;19.60;;;;;;5052345;28;20689;-68
2022/08/15 11:36:59;;;;;;;12.80;9.00;;;31.00;20.70;;;;;;5015263;28;20188;-68
2022/08/15 11:39:29;;;;;;;12.23;9.05;;;30.70;23.70;;;;;;5015027;28;20259;-68
2022/08/15 11:42:02;;;;;;;16.15;10.02;;;29.30;25.60;;;;;;5014834;28;20238;-68
2022/08/15 11:44:41;;;;;;;11.70;9.02;;;28.70;27.20;;;;;;5014929;28;20200;-68
2022/08/15 11:47:14;;;;;;;10.88;8.63;;;29.10;24.30;;;;;;5014976;28;20658;-68
2022/08/15 11:49:48;;;;;;;11.23;8.20;;;29.00;24.00;;;;;;5014987;28;20655;-68
2022/08/15 11:52:23;;;;;;;12.25;8.00;;;29.80;23.70;;;;;;5014822;28;20681;-68
2022/08/15 11:55:14;;;;;;;10.93;8.55;;;29.40;24.40;;;;;;5014733;28;20208;-68
2022/08/15 11:57:46;;;;;;;12.15;8.80;;;29.00;27.10;;;;;;5014792;28;20204;-68
2022/08/15 12:00:22;;;;;;;12.10;9.40;;;28.90;30.80;;;;;;5014495;28;20231;-68
2022/08/15 12:02:49;;;;;;;9.57;8.43;;;28.50;36.20;;;;;;5014773;28;20739;-68
2022/08/15 12:05:26;;;;;;;9.93;8.63;;;28.70;40.80;;;;;;5014396;28;20270;-68
2022/08/15 12:07:58;;;;;;;10.45;8.77;;;28.30;46.40;;;;;;5014681;28;20188;-68
2022/08/15 12:10:29;;;;;;;9.88;8.85;;;28.20;44.70;;;;;;5014327;28;20659;-68
2022/08/15 12:12:58;;;;;;;9.60;8.68;;;28.30;49.20;;;;;;5014467;28;20247;-68
2022/08/15 12:15:37;;;;;;;9.95;8.20;;;28.10;53.50;;;;;;5014605;28;20658;-68
2022/08/15 12:18:12;;;;;;;9.05;8.15;;;28.50;49.40;;;;;;5014115;28;20207;-68
2022/08/15 12:20:45;;;;;;;10.32;7.95;;;29.30;47.60;;;;;;5021084;28;20199;-69
2022/08/15 12:23:20;;;;;;;8.25;7.40;;;29.50;45.80;;;;;;5015179;28;20240;-68
2022/08/15 12:25:51;;;;;;;8.20;7.45;;;29.80;43.60;;;;;;5014105;28;20211;-68
2022/08/15 12:28:19;;;;;;;8.40;7.50;;;30.50;38.10;;;;;;5013598;28;20216;-68
2022/08/15 12:30:47;;;;;;;8.40;7.38;;;30.70;33.20;;;;;;5013822;28;20629;-68
2022/08/15 12:33:13;;;;;;;8.02;6.70;;;30.90;29.30;;;;;;5014190;28;20204;-68
2022/08/15 12:35:41;;;;;;;8.00;7.00;;;31.40;28.20;;;;;;5014074;28;20208;-68
2022/08/15 12:38:08;;;;;;;6.93;6.32;;;31.70;26.20;;;;;;5013967;28;20208;-68
2022/08/15 12:40:36;;;;;;;7.75;6.80;;;31.60;24.50;;;;;;5013399;28;20209;-72
2022/08/15 12:43:03;;;;;;;6.97;6.28;;;31.50;23.20;;;;;;5018361;28;20250;-73
2022/08/15 12:45:31;;;;;;;7.00;6.00;;;31.60;22.50;;;;;;5033357;28;20555;-73
2022/08/15 12:47:58;;;;;;;10.25;6.63;;;31.30;22.00;;;;;;5032630;28;20208;-73
2022/08/15 12:50:24;;;;;;;6.53;5.63;;;31.10;21.20;;;;;;5032794;28;20203;-73
2022/08/15 12:52:51;;;;;;;6.10;5.57;;;30.70;20.00;;;;;;5033419;28;20211;-73
2022/08/15 12:55:18;;;;;;;7.30;6.60;;;30.40;22.00;;;;;;5027718;28;20206;-71
2022/08/15 12:57:45;;;;;;;10.10;6.47;;;30.50;21.70;;;;;;5032813;28;20202;-73
2022/08/15 13:00:13;;;;;;;6.63;6.03;;;30.10;22.80;;;;;;5027742;28;20662;-73
2022/08/15 13:02:43;;;;;;;6.45;5.78;;;30.30;22.80;;;;;;5024964;28;20674;-73